Terminal Aerodrome Forecast
Issued by NWS Rapid City, SD

Home | Current Version | Previous Version | Graphics & Text | Print | Product List | Glossary On
Versions: 1 2 3 4 5 6 7 8 9 10 11 12 13 14 15 16 17 18 19 20 21 22 23 24
000
FTUS43 KUNR 280938 AAC
TAFRAP
TAF AMD
KRAP 280938Z 2810/2906 35012KT P6SM -SN OVC003
     FM281200 34008KT 1/2SM FG OVC003
     FM281600 03008KT 5SM BR OVC009
     FM290300 01009KT 2SM -SHRA BR OVC005=

USA.gov is the U.S. government's official web portal to all federal, state and local government web resources and services.